sensor_id;sensor_type;location;lat;lon;timestamp;temperature;humidity
3846;DHT22;1938;50.812;7.738;2022-11-21T00:00:26;5.30;99.90
3846;DHT22;1938;50.812;7.738;2022-11-21T00:02:52;5.30;99.90
3846;DHT22;1938;50.812;7.738;2022-11-21T00:05:18;5.30;99.90
3846;DHT22;1938;50.812;7.738;2022-11-21T00:07:44;5.30;99.90
3846;DHT22;1938;50.812;7.738;2022-11-21T00:10:14;5.30;99.90
3846;DHT22;1938;50.812;7.738;2022-11-21T00:12:39;5.30;99.90
3846;DHT22;1938;50.812;7.738;2022-11-21T00:15:06;5.30;99.90
3846;DHT22;1938;50.812;7.738;2022-11-21T00:17:31;5.30;99.90
3846;DHT22;1938;50.812;7.738;2022-11-21T00:19:57;5.20;99.90
3846;DHT22;1938;50.812;7.738;2022-11-21T00:22:22;5.20;99.90
3846;DHT22;1938;50.812;7.738;2022-11-21T00:24:48;5.20;99.90
3846;DHT22;1938;50.812;7.738;2022-11-21T00:27:13;5.20;99.90
3846;DHT22;1938;50.812;7.738;2022-11-21T00:29:39;5.20;99.90
3846;DHT22;1938;50.812;7.738;2022-11-21T00:32:04;5.20;99.90
3846;DHT22;1938;50.812;7.738;2022-11-21T00:34:30;5.20;99.90
3846;DHT22;1938;50.812;7.738;2022-11-21T00:36:55;5.20;99.90
3846;DHT22;1938;50.812;7.738;2022-11-21T00:39:21;5.20;99.90
3846;DHT22;1938;50.812;7.738;2022-11-21T00:41:47;5.20;99.90
3846;DHT22;1938;50.812;7.738;2022-11-21T00:44:12;5.20;99.90
3846;DHT22;1938;50.812;7.738;2022-11-21T00:46:38;5.20;99.90
3846;DHT22;1938;50.812;7.738;2022-11-21T00:49:03;5.30;99.90
3846;DHT22;1938;50.812;7.738;2022-11-21T00:51:30;5.30;99.90
3846;DHT22;1938;50.812;7.738;2022-11-21T00:53:55;5.30;99.90
3846;DHT22;1938;50.812;7.738;2022-11-21T00:56:21;5.30;99.90
3846;DHT22;1938;50.812;7.738;2022-11-21T00:58:46;5.30;99.90
3846;DHT22;1938;50.812;7.738;2022-11-21T01:01:13;5.40;99.90
3846;DHT22;1938;50.812;7.738;2022-11-21T01:03:40;5.30;99.90
3846;DHT22;1938;50.812;7.738;2022-11-21T01:06:13;5.40;99.90
3846;DHT22;1938;50.812;7.738;2022-11-21T01:08:40;5.40;99.90
3846;DHT22;1938;50.812;7.738;2022-11-21T01:11:09;5.40;99.90
3846;DHT22;1938;50.812;7.738;2022-11-21T01:13:35;5.40;99.90
3846;DHT22;1938;50.812;7.738;2022-11-21T01:16:06;5.40;99.90
3846;DHT22;1938;50.812;7.738;2022-11-21T01:18:33;5.40;99.90
3846;DHT22;1938;50.812;7.738;2022-11-21T01:21:04;5.40;99.90
3846;DHT22;1938;50.812;7.738;2022-11-21T01:23:30;5.40;99.90
3846;DHT22;1938;50.812;7.738;2022-11-21T01:26:04;5.40;99.90
3846;DHT22;1938;50.812;7.738;2022-11-21T01:28:30;5.40;99.90
3846;DHT22;1938;50.812;7.738;2022-11-21T01:31:05;5.40;99.90
3846;DHT22;1938;50.812;7.738;2022-11-21T01:33:31;5.40;99.90
3846;DHT22;1938;50.812;7.738;2022-11-21T01:36:05;5.30;99.90
3846;DHT22;1938;50.812;7.738;2022-11-21T01:38:32;5.20;99.90
3846;DHT22;1938;50.812;7.738;2022-11-21T01:40:59;5.20;99.90
3846;DHT22;1938;50.812;7.738;2022-11-21T01:43:24;5.20;99.90
3846;DHT22;1938;50.812;7.738;2022-11-21T01:46:09;5.20;99.90
3846;DHT22;1938;50.812;7.738;2022-11-21T01:51:18;5.20;99.90
3846;DHT22;1938;50.812;7.738;2022-11-21T01:53:55;5.20;99.90
3846;DHT22;1938;50.812;7.738;2022-11-21T01:56:23;5.10;99.90
3846;DHT22;1938;50.812;7.738;2022-11-21T01:58:50;5.00;99.90
3846;DHT22;1938;50.812;7.738;2022-11-21T02:01:17;4.90;99.90
3846;DHT22;1938;50.812;7.738;2022-11-21T02:03:44;5.00;99.90
3846;DHT22;1938;50.812;7.738;2022-11-21T02:06:12;5.00;99.90
3846;DHT22;1938;50.812;7.738;2022-11-21T02:08:39;5.10;99.90
3846;DHT22;1938;50.812;7.738;2022-11-21T02:11:23;5.10;99.90
3846;DHT22;1938;50.812;7.738;2022-11-21T02:13:51;5.10;99.90
3846;DHT22;1938;50.812;7.738;2022-11-21T02:16:17;5.10;99.90
3846;DHT22;1938;50.812;7.738;2022-11-21T02:18:43;5.10;99.90
3846;DHT22;1938;50.812;7.738;2022-11-21T02:23:52;5.10;99.90
3846;DHT22;1938;50.812;7.738;2022-11-21T02:26:18;5.10;99.90
3846;DHT22;1938;50.812;7.738;2022-11-21T02:28:45;5.10;99.90
3846;DHT22;1938;50.812;7.738;2022-11-21T02:31:11;5.10;99.90
3846;DHT22;1938;50.812;7.738;2022-11-21T02:33:36;5.10;99.90
3846;DHT22;1938;50.812;7.738;2022-11-21T02:36:02;5.10;99.90
3846;DHT22;1938;50.812;7.738;2022-11-21T02:38:31;5.10;99.90
3846;DHT22;1938;50.812;7.738;2022-11-21T02:41:00;5.10;99.90
3846;DHT22;1938;50.812;7.738;2022-11-21T02:46:22;5.10;99.90
3846;DHT22;1938;50.812;7.738;2022-11-21T02:48:48;5.10;99.90
3846;DHT22;1938;50.812;7.738;2022-11-21T02:51:14;5.10;99.90
3846;DHT22;1938;50.812;7.738;2022-11-21T02:53:39;5.10;99.90
3846;DHT22;1938;50.812;7.738;2022-11-21T02:56:05;5.10;99.90
3846;DHT22;1938;50.812;7.738;2022-11-21T02:58:30;5.10;99.90
3846;DHT22;1938;50.812;7.738;2022-11-21T03:00:56;5.10;99.90
3846;DHT22;1938;50.812;7.738;2022-11-21T03:03:22;5.00;99.90
3846;DHT22;1938;50.812;7.738;2022-11-21T03:05:47;5.00;99.90
3846;DHT22;1938;50.812;7.738;2022-11-21T03:08:13;5.00;99.90
3846;DHT22;1938;50.812;7.738;2022-11-21T03:10:39;5.00;99.90
3846;DHT22;1938;50.812;7.738;2022-11-21T03:13:04;5.00;99.90
3846;DHT22;1938;50.812;7.738;2022-11-21T03:15:33;5.00;99.90
3846;DHT22;1938;50.812;7.738;2022-11-21T03:17:59;5.00;99.90
3846;DHT22;1938;50.812;7.738;2022-11-21T03:20:29;5.00;99.90
3846;DHT22;1938;50.812;7.738;2022-11-21T03:22:55;5.00;99.90
3846;DHT22;1938;50.812;7.738;2022-11-21T03:25:21;5.00;99.90
3846;DHT22;1938;50.812;7.738;2022-11-21T03:27:50;5.00;99.90
3846;DHT22;1938;50.812;7.738;2022-11-21T03:30:16;4.90;99.90
3846;DHT22;1938;50.812;7.738;2022-11-21T03:32:42;5.00;99.90
3846;DHT22;1938;50.812;7.738;2022-11-21T03:35:08;4.90;99.90
3846;DHT22;1938;50.812;7.738;2022-11-21T03:37:34;4.90;99.90
3846;DHT22;1938;50.812;7.738;2022-11-21T03:40:00;4.90;99.90
3846;DHT22;1938;50.812;7.738;2022-11-21T03:42:27;4.90;99.90
3846;DHT22;1938;50.812;7.738;2022-11-21T03:44:52;4.90;99.90
3846;DHT22;1938;50.812;7.738;2022-11-21T03:47:18;4.90;99.90
3846;DHT22;1938;50.812;7.738;2022-11-21T03:49:43;4.90;99.90
3846;DHT22;1938;50.812;7.738;2022-11-21T03:52:10;4.90;99.90
3846;DHT22;1938;50.812;7.738;2022-11-21T03:54:35;4.90;99.90
3846;DHT22;1938;50.812;7.738;2022-11-21T03:57:01;4.90;99.90
3846;DHT22;1938;50.812;7.738;2022-11-21T03:59:26;4.90;99.90
3846;DHT22;1938;50.812;7.738;2022-11-21T04:01:52;4.80;99.90
3846;DHT22;1938;50.812;7.738;2022-11-21T04:04:17;4.90;99.90
3846;DHT22;1938;50.812;7.738;2022-11-21T04:06:43;4.90;99.90
3846;DHT22;1938;50.812;7.738;2022-11-21T04:09:10;4.90;99.90
3846;DHT22;1938;50.812;7.738;2022-11-21T04:11:36;4.90;99.90
3846;DHT22;1938;50.812;7.738;2022-11-21T04:14:02;4.80;99.90
3846;DHT22;1938;50.812;7.738;2022-11-21T04:16:28;4.80;99.90
3846;DHT22;1938;50.812;7.738;2022-11-21T04:18:53;4.80;99.90
3846;DHT22;1938;50.812;7.738;2022-11-21T04:21:19;4.80;99.90
3846;DHT22;1938;50.812;7.738;2022-11-21T04:23:45;4.80;99.90
3846;DHT22;1938;50.812;7.738;2022-11-21T04:26:10;4.80;99.90
3846;DHT22;1938;50.812;7.738;2022-11-21T04:28:36;4.80;99.90
3846;DHT22;1938;50.812;7.738;2022-11-21T04:31:06;4.80;99.90
3846;DHT22;1938;50.812;7.738;2022-11-21T04:33:33;4.80;99.90
3846;DHT22;1938;50.812;7.738;2022-11-21T04:35:59;4.70;99.90
3846;DHT22;1938;50.812;7.738;2022-11-21T04:38:24;4.80;99.90
3846;DHT22;1938;50.812;7.738;2022-11-21T04:40:50;4.70;99.90
3846;DHT22;1938;50.812;7.738;2022-11-21T04:43:18;4.70;99.90
3846;DHT22;1938;50.812;7.738;2022-11-21T04:45:43;4.70;99.90
3846;DHT22;1938;50.812;7.738;2022-11-21T04:48:10;4.70;99.90
3846;DHT22;1938;50.812;7.738;2022-11-21T04:50:35;4.70;99.90
3846;DHT22;1938;50.812;7.738;2022-11-21T04:53:01;4.70;99.90
3846;DHT22;1938;50.812;7.738;2022-11-21T04:55:29;4.80;99.90
3846;DHT22;1938;50.812;7.738;2022-11-21T04:57:55;4.90;99.90
3846;DHT22;1938;50.812;7.738;2022-11-21T05:00:21;4.80;99.90
3846;DHT22;1938;50.812;7.738;2022-11-21T05:02:46;4.90;99.90
3846;DHT22;1938;50.812;7.738;2022-11-21T05:05:12;4.80;99.90
3846;DHT22;1938;50.812;7.738;2022-11-21T05:07:39;4.90;99.90
3846;DHT22;1938;50.812;7.738;2022-11-21T05:10:05;4.90;99.90
3846;DHT22;1938;50.812;7.738;2022-11-21T05:12:31;4.80;99.90
3846;DHT22;1938;50.812;7.738;2022-11-21T05:15:16;4.80;99.90
3846;DHT22;1938;50.812;7.738;2022-11-21T05:17:41;4.70;99.90
3846;DHT22;1938;50.812;7.738;2022-11-21T05:20:07;4.70;99.90
3846;DHT22;1938;50.812;7.738;2022-11-21T05:22:33;4.70;99.90
3846;DHT22;1938;50.812;7.738;2022-11-21T05:24:59;4.70;99.90
3846;DHT22;1938;50.812;7.738;2022-11-21T05:27:24;4.70;99.90
3846;DHT22;1938;50.812;7.738;2022-11-21T05:29:50;4.70;99.90
3846;DHT22;1938;50.812;7.738;2022-11-21T05:32:15;4.80;99.90
3846;DHT22;1938;50.812;7.738;2022-11-21T05:34:41;4.70;99.90
3846;DHT22;1938;50.812;7.738;2022-11-21T05:37:07;4.80;99.90
3846;DHT22;1938;50.812;7.738;2022-11-21T05:39:33;5.10;99.90
3846;DHT22;1938;50.812;7.738;2022-11-21T05:41:58;4.90;99.90
3846;DHT22;1938;50.812;7.738;2022-11-21T05:44:24;5.40;99.90
3846;DHT22;1938;50.812;7.738;2022-11-21T05:46:50;5.30;99.90
3846;DHT22;1938;50.812;7.738;2022-11-21T05:49:15;5.10;99.90
3846;DHT22;1938;50.812;7.738;2022-11-21T05:51:41;5.00;99.90
3846;DHT22;1938;50.812;7.738;2022-11-21T05:54:12;4.90;99.90
3846;DHT22;1938;50.812;7.738;2022-11-21T05:56:38;5.00;99.90
3846;DHT22;1938;50.812;7.738;2022-11-21T05:59:03;5.10;99.90
3846;DHT22;1938;50.812;7.738;2022-11-21T06:01:29;5.20;99.90
3846;DHT22;1938;50.812;7.738;2022-11-21T06:04:13;5.30;99.90
3846;DHT22;1938;50.812;7.738;2022-11-21T06:06:39;5.30;99.90
3846;DHT22;1938;50.812;7.738;2022-11-21T06:09:06;5.20;99.90
3846;DHT22;1938;50.812;7.738;2022-11-21T06:11:31;5.00;99.90
3846;DHT22;1938;50.812;7.738;2022-11-21T06:13:57;4.80;99.90
3846;DHT22;1938;50.812;7.738;2022-11-21T06:16:23;4.70;99.90
3846;DHT22;1938;50.812;7.738;2022-11-21T06:18:50;4.70;99.90
3846;DHT22;1938;50.812;7.738;2022-11-21T06:21:21;4.80;99.90
3846;DHT22;1938;50.812;7.738;2022-11-21T06:23:49;4.80;99.90
3846;DHT22;1938;50.812;7.738;2022-11-21T06:26:17;4.70;99.90
3846;DHT22;1938;50.812;7.738;2022-11-21T06:28:44;4.70;99.90
3846;DHT22;1938;50.812;7.738;2022-11-21T06:31:15;4.70;99.90
3846;DHT22;1938;50.812;7.738;2022-11-21T06:33:41;4.70;99.90
3846;DHT22;1938;50.812;7.738;2022-11-21T06:36:10;4.70;99.90
3846;DHT22;1938;50.812;7.738;2022-11-21T06:38:36;4.70;99.90
3846;DHT22;1938;50.812;7.738;2022-11-21T06:41:05;4.80;99.90
3846;DHT22;1938;50.812;7.738;2022-11-21T06:43:31;4.70;99.90
3846;DHT22;1938;50.812;7.738;2022-11-21T06:45:57;4.70;99.90
3846;DHT22;1938;50.812;7.738;2022-11-21T06:48:23;4.70;99.90
3846;DHT22;1938;50.812;7.738;2022-11-21T06:50:49;4.70;99.90
3846;DHT22;1938;50.812;7.738;2022-11-21T06:53:15;4.60;99.90
3846;DHT22;1938;50.812;7.738;2022-11-21T06:55:40;4.70;99.90
3846;DHT22;1938;50.812;7.738;2022-11-21T06:58:06;4.80;99.90
3846;DHT22;1938;50.812;7.738;2022-11-21T07:00:31;5.00;99.90
3846;DHT22;1938;50.812;7.738;2022-11-21T07:03:01;5.10;99.90
3846;DHT22;1938;50.812;7.738;2022-11-21T07:05:27;5.30;99.90
3846;DHT22;1938;50.812;7.738;2022-11-21T07:08:00;5.40;99.90
3846;DHT22;1938;50.812;7.738;2022-11-21T07:10:26;5.50;99.90
3846;DHT22;1938;50.812;7.738;2022-11-21T07:12:55;5.50;99.90
3846;DHT22;1938;50.812;7.738;2022-11-21T07:15:39;5.60;99.90
3846;DHT22;1938;50.812;7.738;2022-11-21T07:18:05;5.70;99.90
3846;DHT22;1938;50.812;7.738;2022-11-21T07:20:30;5.70;99.90
3846;DHT22;1938;50.812;7.738;2022-11-21T07:22:56;5.70;99.90
3846;DHT22;1938;50.812;7.738;2022-11-21T07:25:22;5.70;99.90
3846;DHT22;1938;50.812;7.738;2022-11-21T07:27:47;5.80;99.90
3846;DHT22;1938;50.812;7.738;2022-11-21T07:30:13;5.80;99.90
3846;DHT22;1938;50.812;7.738;2022-11-21T07:32:39;5.80;99.90
3846;DHT22;1938;50.812;7.738;2022-11-21T07:35:05;5.70;99.90
3846;DHT22;1938;50.812;7.738;2022-11-21T07:37:31;5.70;99.90
3846;DHT22;1938;50.812;7.738;2022-11-21T07:39:56;5.80;99.90
3846;DHT22;1938;50.812;7.738;2022-11-21T07:42:22;5.80;99.90
3846;DHT22;1938;50.812;7.738;2022-11-21T07:44:48;5.80;99.90
3846;DHT22;1938;50.812;7.738;2022-11-21T07:47:13;5.80;99.90
3846;DHT22;1938;50.812;7.738;2022-11-21T07:49:39;5.90;99.90
3846;DHT22;1938;50.812;7.738;2022-11-21T07:52:05;5.80;99.90
3846;DHT22;1938;50.812;7.738;2022-11-21T07:54:30;5.90;99.90
3846;DHT22;1938;50.812;7.738;2022-11-21T07:56:56;5.90;99.90
3846;DHT22;1938;50.812;7.738;2022-11-21T07:59:22;5.90;99.90
3846;DHT22;1938;50.812;7.738;2022-11-21T08:01:49;6.00;99.90
3846;DHT22;1938;50.812;7.738;2022-11-21T08:04:14;6.00;99.90
3846;DHT22;1938;50.812;7.738;2022-11-21T08:06:40;6.00;99.90
3846;DHT22;1938;50.812;7.738;2022-11-21T08:09:05;6.00;99.90
3846;DHT22;1938;50.812;7.738;2022-11-21T08:11:31;5.40;99.90
3846;DHT22;1938;50.812;7.738;2022-11-21T08:13:57;5.20;99.90
3846;DHT22;1938;50.812;7.738;2022-11-21T08:16:24;5.00;99.90
3846;DHT22;1938;50.812;7.738;2022-11-21T08:18:52;4.90;99.90
3846;DHT22;1938;50.812;7.738;2022-11-21T08:21:18;4.90;99.90
3846;DHT22;1938;50.812;7.738;2022-11-21T08:23:43;4.80;99.90
3846;DHT22;1938;50.812;7.738;2022-11-21T08:26:09;4.80;99.90
3846;DHT22;1938;50.812;7.738;2022-11-21T08:28:35;4.80;99.90
3846;DHT22;1938;50.812;7.738;2022-11-21T08:31:04;4.80;99.90
3846;DHT22;1938;50.812;7.738;2022-11-21T08:33:30;4.80;99.90
3846;DHT22;1938;50.812;7.738;2022-11-21T08:35:56;4.90;99.90
3846;DHT22;1938;50.812;7.738;2022-11-21T08:38:21;4.90;99.90
3846;DHT22;1938;50.812;7.738;2022-11-21T08:40:47;4.80;99.90
3846;DHT22;1938;50.812;7.738;2022-11-21T08:43:33;4.80;99.90
3846;DHT22;1938;50.812;7.738;2022-11-21T08:45:58;4.90;99.90
3846;DHT22;1938;50.812;7.738;2022-11-21T08:48:24;4.90;99.90
3846;DHT22;1938;50.812;7.738;2022-11-21T08:50:49;4.90;99.90
3846;DHT22;1938;50.812;7.738;2022-11-21T08:53:15;4.90;99.90
3846;DHT22;1938;50.812;7.738;2022-11-21T08:55:40;5.00;99.90
3846;DHT22;1938;50.812;7.738;2022-11-21T08:58:06;5.00;99.90
3846;DHT22;1938;50.812;7.738;2022-11-21T09:00:31;5.10;99.90
3846;DHT22;1938;50.812;7.738;2022-11-21T09:02:57;5.10;99.90
3846;DHT22;1938;50.812;7.738;2022-11-21T09:05:23;5.10;99.90
3846;DHT22;1938;50.812;7.738;2022-11-21T09:07:55;5.10;99.90
3846;DHT22;1938;50.812;7.738;2022-11-21T09:10:21;5.10;99.90
3846;DHT22;1938;50.812;7.738;2022-11-21T09:12:47;5.10;99.90
3846;DHT22;1938;50.812;7.738;2022-11-21T09:15:12;5.10;99.90
3846;DHT22;1938;50.812;7.738;2022-11-21T09:18:01;5.10;99.90
3846;DHT22;1938;50.812;7.738;2022-11-21T09:20:27;5.10;99.90
3846;DHT22;1938;50.812;7.738;2022-11-21T09:22:53;5.00;99.90
3846;DHT22;1938;50.812;7.738;2022-11-21T09:25:19;5.10;99.90
3846;DHT22;1938;50.812;7.738;2022-11-21T09:27:44;5.10;99.90
3846;DHT22;1938;50.812;7.738;2022-11-21T09:30:10;5.20;99.90
3846;DHT22;1938;50.812;7.738;2022-11-21T09:32:36;5.20;99.90
3846;DHT22;1938;50.812;7.738;2022-11-21T09:35:02;5.30;99.90
3846;DHT22;1938;50.812;7.738;2022-11-21T09:37:28;5.20;99.90
3846;DHT22;1938;50.812;7.738;2022-11-21T09:39:53;5.30;99.90
3846;DHT22;1938;50.812;7.738;2022-11-21T09:42:39;5.20;99.90
3846;DHT22;1938;50.812;7.738;2022-11-21T09:45:14;5.20;99.90
3846;DHT22;1938;50.812;7.738;2022-11-21T09:47:58;5.20;99.90
3846;DHT22;1938;50.812;7.738;2022-11-21T09:50:32;5.20;99.90
3846;DHT22;1938;50.812;7.738;2022-11-21T09:53:08;5.30;99.90
3846;DHT22;1938;50.812;7.738;2022-11-21T09:56:05;5.40;99.90
3846;DHT22;1938;50.812;7.738;2022-11-21T09:58:36;5.60;99.90
3846;DHT22;1938;50.812;7.738;2022-11-21T10:01:04;5.80;99.90
3846;DHT22;1938;50.812;7.738;2022-11-21T10:03:37;5.90;99.90
3846;DHT22;1938;50.812;7.738;2022-11-21T10:06:24;6.10;99.90
3846;DHT22;1938;50.812;7.738;2022-11-21T10:09:16;6.10;99.90
3846;DHT22;1938;50.812;7.738;2022-11-21T10:17:42;5.90;99.90
3846;DHT22;1938;50.812;7.738;2022-11-21T10:20:37;5.80;99.90
3846;DHT22;1938;50.812;7.738;2022-11-21T10:23:22;5.90;99.90
3846;DHT22;1938;50.812;7.738;2022-11-21T10:25:56;6.20;99.90
3846;DHT22;1938;50.812;7.738;2022-11-21T10:28:30;6.50;99.90
3846;DHT22;1938;50.812;7.738;2022-11-21T10:30:59;6.70;99.90
3846;DHT22;1938;50.812;7.738;2022-11-21T10:33:30;7.00;99.90
3846;DHT22;1938;50.812;7.738;2022-11-21T10:36:00;7.20;99.90
3846;DHT22;1938;50.812;7.738;2022-11-21T10:38:28;7.40;99.90
3846;DHT22;1938;50.812;7.738;2022-11-21T10:41:01;7.70;99.90
3846;DHT22;1938;50.812;7.738;2022-11-21T10:46:30;8.00;99.90
3846;DHT22;1938;50.812;7.738;2022-11-21T10:48:59;8.20;99.90
3846;DHT22;1938;50.812;7.738;2022-11-21T10:51:49;8.40;99.90
3846;DHT22;1938;50.812;7.738;2022-11-21T10:54:15;8.60;99.90
3846;DHT22;1938;50.812;7.738;2022-11-21T10:57:16;8.70;99.90
3846;DHT22;1938;50.812;7.738;2022-11-21T11:00:19;9.00;20.10
3846;DHT22;1938;50.812;7.738;2022-11-21T11:05:28;9.30;99.90
3846;DHT22;1938;50.812;7.738;2022-11-21T11:10:29;9.60;99.90
3846;DHT22;1938;50.812;7.738;2022-11-21T11:12:56;9.70;99.90
3846;DHT22;1938;50.812;7.738;2022-11-21T11:16:17;9.60;99.90
3846;DHT22;1938;50.812;7.738;2022-11-21T11:21:22;9.60;5.00
3846;DHT22;1938;50.812;7.738;2022-11-21T11:23:50;9.50;1.00
3846;DHT22;1938;50.812;7.738;2022-11-21T11:27:01;9.50;1.00
3846;DHT22;1938;50.812;7.738;2022-11-21T11:29:28;9.30;99.90
3846;DHT22;1938;50.812;7.738;2022-11-21T11:34:26;8.90;1.00
3846;DHT22;1938;50.812;7.738;2022-11-21T11:39:38;8.50;1.00
3846;DHT22;1938;50.812;7.738;2022-11-21T11:42:21;7.70;1.00
3846;DHT22;1938;50.812;7.738;2022-11-21T11:48:01;6.60;1.00
3846;DHT22;1938;50.812;7.738;2022-11-21T11:53:19;6.30;99.90
3846;DHT22;1938;50.812;7.738;2022-11-21T11:55:53;6.30;99.90
3846;DHT22;1938;50.812;7.738;2022-11-21T11:58:43;6.30;99.90
3846;DHT22;1938;50.812;7.738;2022-11-21T12:01:13;6.20;99.90
3846;DHT22;1938;50.812;7.738;2022-11-21T12:03:53;6.20;99.90
3846;DHT22;1938;50.812;7.738;2022-11-21T12:06:29;6.20;99.90
3846;DHT22;1938;50.812;7.738;2022-11-21T12:20:35;6.10;99.90
3846;DHT22;1938;50.812;7.738;2022-11-21T12:23:03;6.10;99.90
3846;DHT22;1938;50.812;7.738;2022-11-21T12:25:33;6.10;99.90
3846;DHT22;1938;50.812;7.738;2022-11-21T12:28:05;6.10;99.90
3846;DHT22;1938;50.812;7.738;2022-11-21T12:30:45;6.10;99.90
3846;DHT22;1938;50.812;7.738;2022-11-21T12:33:20;6.10;99.90
3846;DHT22;1938;50.812;7.738;2022-11-21T12:36:13;6.10;99.90
3846;DHT22;1938;50.812;7.738;2022-11-21T12:46:54;6.30;99.90
3846;DHT22;1938;50.812;7.738;2022-11-21T12:49:49;6.40;99.90
3846;DHT22;1938;50.812;7.738;2022-11-21T12:52:47;6.40;99.90
3846;DHT22;1938;50.812;7.738;2022-11-21T12:55:37;6.50;99.90
3846;DHT22;1938;50.812;7.738;2022-11-21T13:04:14;6.70;99.90
3846;DHT22;1938;50.812;7.738;2022-11-21T13:06:43;6.70;99.90
3846;DHT22;1938;50.812;7.738;2022-11-21T13:09:14;6.70;99.90
3846;DHT22;1938;50.812;7.738;2022-11-21T13:12:46;6.60;99.90
3846;DHT22;1938;50.812;7.738;2022-11-21T13:15:04;6.50;99.90
3846;DHT22;1938;50.812;7.738;2022-11-21T13:20:21;6.40;1.00
3846;DHT22;1938;50.812;7.738;2022-11-21T13:22:49;6.30;1.00
3846;DHT22;1938;50.812;7.738;2022-11-21T13:30:47;6.20;1.00
3846;DHT22;1938;50.812;7.738;2022-11-21T13:38:25;6.20;99.90
3846;DHT22;1938;50.812;7.738;2022-11-21T13:40:51;6.10;12.70
3846;DHT22;1938;50.812;7.738;2022-11-21T13:43:35;6.10;99.70
3846;DHT22;1938;50.812;7.738;2022-11-21T13:46:02;6.00;1.00
3846;DHT22;1938;50.812;7.738;2022-11-21T14:00:28;5.70;99.90
3846;DHT22;1938;50.812;7.738;2022-11-21T14:12:05;5.70;1.00
3846;DHT22;1938;50.812;7.738;2022-11-21T14:15:10;5.70;99.90
3846;DHT22;1938;50.812;7.738;2022-11-21T14:17:47;5.60;99.90
3846;DHT22;1938;50.812;7.738;2022-11-21T14:25:18;5.60;99.90
3846;DHT22;1938;50.812;7.738;2022-11-21T14:27:46;5.60;1.00
3846;DHT22;1938;50.812;7.738;2022-11-21T14:30:32;5.50;41.50
3846;DHT22;1938;50.812;7.738;2022-11-21T14:33:25;5.50;1.00
3846;DHT22;1938;50.812;7.738;2022-11-21T14:35:54;5.40;99.90
3846;DHT22;1938;50.812;7.738;2022-11-21T14:38:22;5.50;1.00
3846;DHT22;1938;50.812;7.738;2022-11-21T14:40:48;5.40;99.90
3846;DHT22;1938;50.812;7.738;2022-11-21T14:43:32;5.50;1.00
3846;DHT22;1938;50.812;7.738;2022-11-21T14:45:58;5.40;60.40
3846;DHT22;1938;50.812;7.738;2022-11-21T14:48:28;5.40;1.00
3846;DHT22;1938;50.812;7.738;2022-11-21T14:50:58;5.40;17.50
3846;DHT22;1938;50.812;7.738;2022-11-21T14:53:25;5.40;1.00
3846;DHT22;1938;50.812;7.738;2022-11-21T14:55:51;5.40;52.10
3846;DHT22;1938;50.812;7.738;2022-11-21T14:58:17;5.30;87.80
3846;DHT22;1938;50.812;7.738;2022-11-21T15:01:03;5.30;99.90
3846;DHT22;1938;50.812;7.738;2022-11-21T15:03:29;5.20;1.00
3846;DHT22;1938;50.812;7.738;2022-11-21T15:06:02;5.20;1.00
3846;DHT22;1938;50.812;7.738;2022-11-21T15:08:34;5.10;1.00
3846;DHT22;1938;50.812;7.738;2022-11-21T15:11:01;5.10;99.90
3846;DHT22;1938;50.812;7.738;2022-11-21T15:13:29;5.00;99.90
3846;DHT22;1938;50.812;7.738;2022-11-21T15:15:59;4.90;1.00
3846;DHT22;1938;50.812;7.738;2022-11-21T15:18:28;4.80;1.00
3846;DHT22;1938;50.812;7.738;2022-11-21T15:20:59;4.70;1.00
3846;DHT22;1938;50.812;7.738;2022-11-21T15:23:28;4.60;1.00
3846;DHT22;1938;50.812;7.738;2022-11-21T15:25:54;4.50;58.90
3846;DHT22;1938;50.812;7.738;2022-11-21T15:28:20;4.50;99.90
3846;DHT22;1938;50.812;7.738;2022-11-21T15:30:46;4.30;99.90
3846;DHT22;1938;50.812;7.738;2022-11-21T15:33:14;4.20;99.90
3846;DHT22;1938;50.812;7.738;2022-11-21T15:35:47;4.10;99.90
3846;DHT22;1938;50.812;7.738;2022-11-21T15:43:43;4.00;99.90
3846;DHT22;1938;50.812;7.738;2022-11-21T15:46:23;4.00;99.90
3846;DHT22;1938;50.812;7.738;2022-11-21T15:48:50;3.90;99.90
3846;DHT22;1938;50.812;7.738;2022-11-21T15:51:18;3.90;99.90
3846;DHT22;1938;50.812;7.738;2022-11-21T15:53:45;3.90;99.90
3846;DHT22;1938;50.812;7.738;2022-11-21T15:56:15;3.90;99.90
3846;DHT22;1938;50.812;7.738;2022-11-21T15:58:42;3.90;99.90
3846;DHT22;1938;50.812;7.738;2022-11-21T16:01:18;3.90;99.90
3846;DHT22;1938;50.812;7.738;2022-11-21T16:03:47;3.80;99.90
3846;DHT22;1938;50.812;7.738;2022-11-21T16:06:14;3.80;99.90
3846;DHT22;1938;50.812;7.738;2022-11-21T16:08:39;3.80;99.90
3846;DHT22;1938;50.812;7.738;2022-11-21T16:11:06;3.80;99.90
3846;DHT22;1938;50.812;7.738;2022-11-21T16:13:32;3.90;99.90
3846;DHT22;1938;50.812;7.738;2022-11-21T16:15:59;3.90;99.90
3846;DHT22;1938;50.812;7.738;2022-11-21T16:18:25;3.90;99.90
3846;DHT22;1938;50.812;7.738;2022-11-21T16:20:50;3.90;99.90
3846;DHT22;1938;50.812;7.738;2022-11-21T16:23:16;4.00;99.90
3846;DHT22;1938;50.812;7.738;2022-11-21T16:25:53;4.10;99.90
3846;DHT22;1938;50.812;7.738;2022-11-21T16:28:19;4.20;99.90
3846;DHT22;1938;50.812;7.738;2022-11-21T16:30:45;4.20;99.90
3846;DHT22;1938;50.812;7.738;2022-11-21T16:33:10;4.30;99.90
3846;DHT22;1938;50.812;7.738;2022-11-21T16:35:39;4.40;99.90
3846;DHT22;1938;50.812;7.738;2022-11-21T16:38:09;4.40;99.90
3846;DHT22;1938;50.812;7.738;2022-11-21T16:40:35;4.50;99.90
3846;DHT22;1938;50.812;7.738;2022-11-21T16:43:10;4.50;91.60
3846;DHT22;1938;50.812;7.738;2022-11-21T16:45:37;4.50;59.10
3846;DHT22;1938;50.812;7.738;2022-11-21T16:48:04;4.50;9.10
3846;DHT22;1938;50.812;7.738;2022-11-21T16:50:29;4.50;13.40
3846;DHT22;1938;50.812;7.738;2022-11-21T16:52:55;4.50;4.50
3846;DHT22;1938;50.812;7.738;2022-11-21T16:55:21;4.50;42.30
3846;DHT22;1938;50.812;7.738;2022-11-21T16:57:47;4.50;18.30
3846;DHT22;1938;50.812;7.738;2022-11-21T17:00:12;4.60;10.00
3846;DHT22;1938;50.812;7.738;2022-11-21T17:02:38;4.60;1.00
3846;DHT22;1938;50.812;7.738;2022-11-21T17:05:05;4.60;1.00
3846;DHT22;1938;50.812;7.738;2022-11-21T17:07:31;4.60;1.00
3846;DHT22;1938;50.812;7.738;2022-11-21T17:09:57;4.50;99.90
3846;DHT22;1938;50.812;7.738;2022-11-21T17:12:23;4.50;1.00
3846;DHT22;1938;50.812;7.738;2022-11-21T17:14:49;4.40;1.00
3846;DHT22;1938;50.812;7.738;2022-11-21T17:17:15;4.30;1.00
3846;DHT22;1938;50.812;7.738;2022-11-21T17:19:40;4.30;13.10
3846;DHT22;1938;50.812;7.738;2022-11-21T17:22:06;4.20;17.30
3846;DHT22;1938;50.812;7.738;2022-11-21T17:24:32;4.20;20.20
3846;DHT22;1938;50.812;7.738;2022-11-21T17:26:57;4.20;55.10
3846;DHT22;1938;50.812;7.738;2022-11-21T17:29:28;4.20;50.90
3846;DHT22;1938;50.812;7.738;2022-11-21T17:31:54;4.20;37.70
3846;DHT22;1938;50.812;7.738;2022-11-21T17:34:21;4.20;47.70
3846;DHT22;1938;50.812;7.738;2022-11-21T17:36:46;4.20;89.30
3846;DHT22;1938;50.812;7.738;2022-11-21T17:39:12;4.20;99.90
3846;DHT22;1938;50.812;7.738;2022-11-21T17:41:38;4.20;64.40
3846;DHT22;1938;50.812;7.738;2022-11-21T17:44:05;4.30;98.50
3846;DHT22;1938;50.812;7.738;2022-11-21T17:46:31;4.30;94.60
3846;DHT22;1938;50.812;7.738;2022-11-21T17:48:57;4.30;65.70
3846;DHT22;1938;50.812;7.738;2022-11-21T17:51:26;4.30;76.80
3846;DHT22;1938;50.812;7.738;2022-11-21T17:53:52;4.30;24.40
3846;DHT22;1938;50.812;7.738;2022-11-21T17:56:20;4.30;21.50
3846;DHT22;1938;50.812;7.738;2022-11-21T17:58:46;4.20;21.70
3846;DHT22;1938;50.812;7.738;2022-11-21T18:01:12;4.20;87.20
3846;DHT22;1938;50.812;7.738;2022-11-21T18:03:44;4.20;73.30
3846;DHT22;1938;50.812;7.738;2022-11-21T18:06:12;4.20;76.50
3846;DHT22;1938;50.812;7.738;2022-11-21T18:08:40;4.20;86.50
3846;DHT22;1938;50.812;7.738;2022-11-21T18:11:08;4.20;74.10
3846;DHT22;1938;50.812;7.738;2022-11-21T18:13:35;4.20;75.20
3846;DHT22;1938;50.812;7.738;2022-11-21T18:16:06;4.20;95.10
3846;DHT22;1938;50.812;7.738;2022-11-21T18:18:34;4.20;50.90